Main page
METAR-TAF:

METAR-TAF

Airports :

Angers – Loire Airport

Angers, France

latitude: 47-33-37N, longitude: 000-18-44W, elevation: 59 m

Current weather observation

The report was made 20 minutes ago, at 23:00 UTC
Wind 1 kt from the East
Temperature 15°C
Humidity 82%
Pressure 998 hPa
Visibility 10 km or more
no clouds below 1500 m and no cumulonimbus

METAR: LFJR 222300Z AUTO 08001KT CAVOK 15/12 Q0998

Time: 01:20 (23:20 UTC)

Forecast

The report was made 12 hours and 20 minutes ago, at 11:00 UTC
Forecast valid from 22 at 12 UTC to 22 at 21 UTC
Wind 10 kt from the Southeast
Visibility 10 km or more
no clouds below 1500 m and no cumulonimbus
Probability 30% :
Temporary
from 22 at 14 UTC to 22 at 18 UTC
Broken clouds at a height of 7000 ft, Towering cumulus.
light rain showers

TAF: LFJR 221100Z 2212/2221 13010KT CAVOK PROB30 TEMPO 2214/2218 -SHRA BKN070TCU

Weather observations and forecasts of more than 4000 airports (METAR and TAF reports).

The available stations are represented by yellow and red dots on the map.

Hover mouse over dot to see the name of the station.

Then click to see weather observations and forecasts.

To change the map : click on the green buttons with a black cross to zoom in, on the green button with a dash to zoom out, or on the green arrows for adjacent maps.


METAR-TAF: